sensor_id;sensor_type;location;lat;lon;timestamp;P1;durP1;ratioP1;P2;durP2;ratioP2
50249;SDS011;36133;42.522;27.456;2022-09-16T00:01:26;7.95;;;3.97;;
50249;SDS011;36133;42.522;27.456;2022-09-16T00:03:55;8.27;;;3.85;;
50249;SDS011;36133;42.522;27.456;2022-09-16T00:06:22;7.57;;;3.80;;
50249;SDS011;36133;42.522;27.456;2022-09-16T00:08:57;6.05;;;4.05;;
50249;SDS011;36133;42.522;27.456;2022-09-16T00:11:27;5.43;;;3.67;;
50249;SDS011;36133;42.522;27.456;2022-09-16T00:13:55;6.85;;;3.85;;
50249;SDS011;36133;42.522;27.456;2022-09-16T00:16:21;4.57;;;3.83;;
50249;SDS011;36133;42.522;27.456;2022-09-16T00:18:53;7.28;;;3.92;;
50249;SDS011;36133;42.522;27.456;2022-09-16T00:21:19;6.53;;;4.07;;
50249;SDS011;36133;42.522;27.456;2022-09-16T00:23:45;5.57;;;3.55;;
50249;SDS011;36133;42.522;27.456;2022-09-16T00:26:11;7.47;;;4.10;;
50249;SDS011;36133;42.522;27.456;2022-09-16T00:28:36;6.72;;;3.75;;
50249;SDS011;36133;42.522;27.456;2022-09-16T00:31:02;9.25;;;3.92;;
50249;SDS011;36133;42.522;27.456;2022-09-16T00:33:27;4.80;;;3.97;;
50249;SDS011;36133;42.522;27.456;2022-09-16T00:36:03;6.18;;;4.07;;
50249;SDS011;36133;42.522;27.456;2022-09-16T00:38:30;7.28;;;3.72;;
50249;SDS011;36133;42.522;27.456;2022-09-16T00:40:56;5.13;;;3.97;;
50249;SDS011;36133;42.522;27.456;2022-09-16T00:43:22;4.38;;;3.83;;
50249;SDS011;36133;42.522;27.456;2022-09-16T00:45:54;6.57;;;4.30;;
50249;SDS011;36133;42.522;27.456;2022-09-16T00:48:24;9.02;;;3.80;;
50249;SDS011;36133;42.522;27.456;2022-09-16T00:51:01;4.80;;;3.88;;
50249;SDS011;36133;42.522;27.456;2022-09-16T00:53:30;8.10;;;4.18;;
50249;SDS011;36133;42.522;27.456;2022-09-16T00:56:11;6.07;;;3.58;;
50249;SDS011;36133;42.522;27.456;2022-09-16T00:58:41;4.60;;;3.80;;
50249;SDS011;36133;42.522;27.456;2022-09-16T01:01:10;7.35;;;4.03;;
50249;SDS011;36133;42.522;27.456;2022-09-16T01:03:58;7.45;;;3.90;;
50249;SDS011;36133;42.522;27.456;2022-09-16T01:06:24;7.47;;;3.97;;
50249;SDS011;36133;42.522;27.456;2022-09-16T01:08:51;7.30;;;4.35;;
50249;SDS011;36133;42.522;27.456;2022-09-16T01:11:16;8.13;;;4.00;;
50249;SDS011;36133;42.522;27.456;2022-09-16T01:13:42;7.72;;;4.25;;
50249;SDS011;36133;42.522;27.456;2022-09-16T01:16:15;7.72;;;4.35;;
50249;SDS011;36133;42.522;27.456;2022-09-16T01:27:20;5.00;;;4.50;;
50249;SDS011;36133;42.522;27.456;2022-09-16T01:33:04;7.38;;;4.30;;
50249;SDS011;36133;42.522;27.456;2022-09-16T01:38:39;7.40;;;4.25;;
50249;SDS011;36133;42.522;27.456;2022-09-16T01:41:35;5.70;;;4.40;;
50249;SDS011;36133;42.522;27.456;2022-09-16T01:44:08;12.65;;;4.95;;
50249;SDS011;36133;42.522;27.456;2022-09-16T01:47:09;8.38;;;4.40;;
50249;SDS011;36133;42.522;27.456;2022-09-16T01:58:02;7.45;;;4.18;;
50249;SDS011;36133;42.522;27.456;2022-09-16T02:00:38;5.70;;;4.18;;
50249;SDS011;36133;42.522;27.456;2022-09-16T02:03:09;10.15;;;4.68;;
50249;SDS011;36133;42.522;27.456;2022-09-16T02:05:40;7.35;;;4.05;;
50249;SDS011;36133;42.522;27.456;2022-09-16T02:08:11;7.70;;;4.30;;
50249;SDS011;36133;42.522;27.456;2022-09-16T02:10:46;8.95;;;4.07;;
50249;SDS011;36133;42.522;27.456;2022-09-16T02:13:18;11.82;;;5.35;;
50249;SDS011;36133;42.522;27.456;2022-09-16T02:15:48;6.57;;;4.28;;
50249;SDS011;36133;42.522;27.456;2022-09-16T02:18:18;9.68;;;4.30;;
50249;SDS011;36133;42.522;27.456;2022-09-16T02:20:48;4.38;;;3.90;;
50249;SDS011;36133;42.522;27.456;2022-09-16T02:23:24;8.18;;;4.80;;
50249;SDS011;36133;42.522;27.456;2022-09-16T02:25:57;5.40;;;4.30;;
50249;SDS011;36133;42.522;27.456;2022-09-16T02:28:27;7.43;;;4.20;;
50249;SDS011;36133;42.522;27.456;2022-09-16T02:30:57;7.20;;;4.38;;
50249;SDS011;36133;42.522;27.456;2022-09-16T02:33:29;7.57;;;4.35;;
50249;SDS011;36133;42.522;27.456;2022-09-16T02:36:00;8.25;;;4.45;;
50249;SDS011;36133;42.522;27.456;2022-09-16T02:38:49;11.38;;;4.82;;
50249;SDS011;36133;42.522;27.456;2022-09-16T02:41:17;8.85;;;4.60;;
50249;SDS011;36133;42.522;27.456;2022-09-16T02:43:44;5.47;;;4.20;;
50249;SDS011;36133;42.522;27.456;2022-09-16T02:46:16;6.15;;;4.03;;
50249;SDS011;36133;42.522;27.456;2022-09-16T02:51:57;9.50;;;4.70;;
50249;SDS011;36133;42.522;27.456;2022-09-16T02:54:53;4.57;;;4.00;;
50249;SDS011;36133;42.522;27.456;2022-09-16T02:57:24;9.68;;;4.60;;
50249;SDS011;36133;42.522;27.456;2022-09-16T02:59:51;8.05;;;4.63;;
50249;SDS011;36133;42.522;27.456;2022-09-16T03:02:18;8.32;;;4.60;;
50249;SDS011;36133;42.522;27.456;2022-09-16T03:04:45;6.57;;;4.30;;
50249;SDS011;36133;42.522;27.456;2022-09-16T03:07:10;10.73;;;4.70;;
50249;SDS011;36133;42.522;27.456;2022-09-16T03:09:38;7.07;;;4.53;;
50249;SDS011;36133;42.522;27.456;2022-09-16T03:12:15;8.98;;;4.60;;
50249;SDS011;36133;42.522;27.456;2022-09-16T03:28:17;8.75;;;4.18;;
50249;SDS011;36133;42.522;27.456;2022-09-16T03:33:46;7.60;;;4.57;;
50249;SDS011;36133;42.522;27.456;2022-09-16T03:36:19;13.23;;;4.63;;
50249;SDS011;36133;42.522;27.456;2022-09-16T03:38:51;8.93;;;4.40;;
50249;SDS011;36133;42.522;27.456;2022-09-16T03:41:18;8.50;;;4.50;;
50249;SDS011;36133;42.522;27.456;2022-09-16T03:43:55;5.65;;;4.20;;
50249;SDS011;36133;42.522;27.456;2022-09-16T03:46:23;6.75;;;4.47;;
50249;SDS011;36133;42.522;27.456;2022-09-16T03:48:50;6.68;;;4.40;;
50249;SDS011;36133;42.522;27.456;2022-09-16T03:51:16;6.10;;;4.15;;
50249;SDS011;36133;42.522;27.456;2022-09-16T03:53:41;6.45;;;4.28;;
50249;SDS011;36133;42.522;27.456;2022-09-16T03:56:07;7.70;;;4.68;;
50249;SDS011;36133;42.522;27.456;2022-09-16T03:58:33;15.43;;;5.10;;
50249;SDS011;36133;42.522;27.456;2022-09-16T04:00:58;8.57;;;5.05;;
50249;SDS011;36133;42.522;27.456;2022-09-16T04:03:24;7.10;;;4.90;;
50249;SDS011;36133;42.522;27.456;2022-09-16T04:05:53;9.70;;;4.93;;
50249;SDS011;36133;42.522;27.456;2022-09-16T04:08:19;9.25;;;4.65;;
50249;SDS011;36133;42.522;27.456;2022-09-16T04:11:06;12.00;;;5.22;;
50249;SDS011;36133;42.522;27.456;2022-09-16T04:13:31;9.25;;;5.45;;
50249;SDS011;36133;42.522;27.456;2022-09-16T04:15:58;9.25;;;5.00;;
50249;SDS011;36133;42.522;27.456;2022-09-16T04:18:24;8.32;;;4.68;;
50249;SDS011;36133;42.522;27.456;2022-09-16T04:20:54;7.75;;;4.57;;
50249;SDS011;36133;42.522;27.456;2022-09-16T04:23:22;10.45;;;5.03;;
50249;SDS011;36133;42.522;27.456;2022-09-16T04:25:55;8.50;;;4.78;;
50249;SDS011;36133;42.522;27.456;2022-09-16T04:28:22;8.00;;;4.90;;
50249;SDS011;36133;42.522;27.456;2022-09-16T04:30:48;8.40;;;4.60;;
50249;SDS011;36133;42.522;27.456;2022-09-16T04:33:13;9.50;;;5.20;;
50249;SDS011;36133;42.522;27.456;2022-09-16T04:35:39;9.98;;;5.30;;
50249;SDS011;36133;42.522;27.456;2022-09-16T04:38:04;18.85;;;5.47;;
50249;SDS011;36133;42.522;27.456;2022-09-16T04:40:30;10.32;;;5.70;;
50249;SDS011;36133;42.522;27.456;2022-09-16T04:42:55;12.82;;;5.13;;
50249;SDS011;36133;42.522;27.456;2022-09-16T04:45:21;6.68;;;4.65;;
50249;SDS011;36133;42.522;27.456;2022-09-16T04:47:46;8.63;;;4.60;;
50249;SDS011;36133;42.522;27.456;2022-09-16T04:50:12;13.30;;;4.82;;
50249;SDS011;36133;42.522;27.456;2022-09-16T04:52:37;10.73;;;5.22;;
50249;SDS011;36133;42.522;27.456;2022-09-16T04:55:03;10.60;;;4.50;;
50249;SDS011;36133;42.522;27.456;2022-09-16T04:57:29;10.77;;;5.20;;
50249;SDS011;36133;42.522;27.456;2022-09-16T04:59:56;8.95;;;4.88;;
50249;SDS011;36133;42.522;27.456;2022-09-16T05:02:22;11.00;;;5.15;;
50249;SDS011;36133;42.522;27.456;2022-09-16T05:04:48;8.10;;;4.97;;
50249;SDS011;36133;42.522;27.456;2022-09-16T05:07:13;15.50;;;5.40;;
50249;SDS011;36133;42.522;27.456;2022-09-16T05:09:39;9.15;;;4.57;;
50249;SDS011;36133;42.522;27.456;2022-09-16T05:12:05;10.32;;;5.15;;
50249;SDS011;36133;42.522;27.456;2022-09-16T05:14:31;11.45;;;4.80;;
50249;SDS011;36133;42.522;27.456;2022-09-16T05:16:56;6.78;;;4.35;;
50249;SDS011;36133;42.522;27.456;2022-09-16T05:19:22;12.93;;;5.18;;
50249;SDS011;36133;42.522;27.456;2022-09-16T05:21:47;10.73;;;4.70;;
50249;SDS011;36133;42.522;27.456;2022-09-16T05:24:13;15.13;;;4.88;;
50249;SDS011;36133;42.522;27.456;2022-09-16T05:26:39;14.13;;;4.63;;
50249;SDS011;36133;42.522;27.456;2022-09-16T05:29:10;8.43;;;5.53;;
50249;SDS011;36133;42.522;27.456;2022-09-16T05:31:39;9.63;;;5.20;;
50249;SDS011;36133;42.522;27.456;2022-09-16T05:34:10;14.70;;;4.90;;
50249;SDS011;36133;42.522;27.456;2022-09-16T05:36:40;7.47;;;4.72;;
50249;SDS011;36133;42.522;27.456;2022-09-16T05:39:08;10.88;;;5.13;;
50249;SDS011;36133;42.522;27.456;2022-09-16T05:41:39;8.18;;;4.80;;
50249;SDS011;36133;42.522;27.456;2022-09-16T05:44:05;11.90;;;4.43;;
50249;SDS011;36133;42.522;27.456;2022-09-16T05:46:31;7.10;;;3.90;;
50249;SDS011;36133;42.522;27.456;2022-09-16T05:48:57;8.27;;;3.72;;
50249;SDS011;36133;42.522;27.456;2022-09-16T05:51:23;9.18;;;4.50;;
50249;SDS011;36133;42.522;27.456;2022-09-16T05:53:50;6.47;;;4.05;;
50249;SDS011;36133;42.522;27.456;2022-09-16T05:56:20;7.25;;;3.95;;
50249;SDS011;36133;42.522;27.456;2022-09-16T05:58:50;7.85;;;4.45;;
50249;SDS011;36133;42.522;27.456;2022-09-16T06:01:19;9.82;;;4.10;;
50249;SDS011;36133;42.522;27.456;2022-09-16T06:03:46;11.85;;;4.63;;
50249;SDS011;36133;42.522;27.456;2022-09-16T06:08:43;10.95;;;4.80;;
50249;SDS011;36133;42.522;27.456;2022-09-16T06:11:09;9.20;;;4.47;;
50249;SDS011;36133;42.522;27.456;2022-09-16T06:13:36;8.70;;;4.22;;
50249;SDS011;36133;42.522;27.456;2022-09-16T06:16:04;10.30;;;4.50;;
50249;SDS011;36133;42.522;27.456;2022-09-16T06:18:31;11.98;;;4.93;;
50249;SDS011;36133;42.522;27.456;2022-09-16T06:21:01;8.55;;;4.40;;
50249;SDS011;36133;42.522;27.456;2022-09-16T06:23:28;7.13;;;4.35;;
50249;SDS011;36133;42.522;27.456;2022-09-16T06:26:04;7.00;;;4.38;;
50249;SDS011;36133;42.522;27.456;2022-09-16T06:28:34;10.57;;;4.30;;
50249;SDS011;36133;42.522;27.456;2022-09-16T06:31:10;10.75;;;4.13;;
50249;SDS011;36133;42.522;27.456;2022-09-16T06:33:38;10.32;;;3.67;;
50249;SDS011;36133;42.522;27.456;2022-09-16T06:36:07;10.77;;;3.95;;
50249;SDS011;36133;42.522;27.456;2022-09-16T06:38:34;6.72;;;4.03;;
50249;SDS011;36133;42.522;27.456;2022-09-16T06:41:01;8.65;;;3.58;;
50249;SDS011;36133;42.522;27.456;2022-09-16T06:43:28;9.60;;;3.90;;
50249;SDS011;36133;42.522;27.456;2022-09-16T06:45:56;9.77;;;4.15;;
50249;SDS011;36133;42.522;27.456;2022-09-16T06:48:32;8.38;;;3.90;;
50249;SDS011;36133;42.522;27.456;2022-09-16T06:51:03;8.63;;;4.07;;
50249;SDS011;36133;42.522;27.456;2022-09-16T06:53:30;8.65;;;4.20;;
50249;SDS011;36133;42.522;27.456;2022-09-16T06:56:00;8.85;;;4.18;;
50249;SDS011;36133;42.522;27.456;2022-09-16T06:58:30;9.43;;;4.07;;
50249;SDS011;36133;42.522;27.456;2022-09-16T07:00:56;17.85;;;4.57;;
50249;SDS011;36133;42.522;27.456;2022-09-16T07:03:22;8.23;;;4.70;;
50249;SDS011;36133;42.522;27.456;2022-09-16T07:05:58;9.02;;;4.20;;
50249;SDS011;36133;42.522;27.456;2022-09-16T07:08:32;8.30;;;4.68;;
50249;SDS011;36133;42.522;27.456;2022-09-16T07:10:59;12.93;;;4.50;;
50249;SDS011;36133;42.522;27.456;2022-09-16T07:13:28;9.35;;;4.07;;
50249;SDS011;36133;42.522;27.456;2022-09-16T07:15:57;12.60;;;5.03;;
50249;SDS011;36133;42.522;27.456;2022-09-16T07:18:30;9.23;;;4.50;;
50249;SDS011;36133;42.522;27.456;2022-09-16T07:21:03;8.43;;;3.47;;
50249;SDS011;36133;42.522;27.456;2022-09-16T07:23:43;8.73;;;3.88;;
50249;SDS011;36133;42.522;27.456;2022-09-16T07:28:43;10.02;;;3.80;;
50249;SDS011;36133;42.522;27.456;2022-09-16T07:31:14;7.20;;;3.72;;
50249;SDS011;36133;42.522;27.456;2022-09-16T07:33:49;11.90;;;4.28;;
50249;SDS011;36133;42.522;27.456;2022-09-16T07:36:17;10.70;;;3.90;;
50249;SDS011;36133;42.522;27.456;2022-09-16T07:38:44;11.55;;;3.58;;
50249;SDS011;36133;42.522;27.456;2022-09-16T07:41:12;14.85;;;4.25;;
50249;SDS011;36133;42.522;27.456;2022-09-16T07:43:48;10.65;;;4.10;;
50249;SDS011;36133;42.522;27.456;2022-09-16T07:46:15;7.03;;;4.30;;
50249;SDS011;36133;42.522;27.456;2022-09-16T07:48:43;10.70;;;4.10;;
50249;SDS011;36133;42.522;27.456;2022-09-16T07:51:14;8.77;;;3.42;;
50249;SDS011;36133;42.522;27.456;2022-09-16T07:53:41;11.98;;;4.65;;
50249;SDS011;36133;42.522;27.456;2022-09-16T07:56:19;8.38;;;3.95;;
50249;SDS011;36133;42.522;27.456;2022-09-16T07:58:46;16.67;;;4.88;;
50249;SDS011;36133;42.522;27.456;2022-09-16T08:01:13;6.50;;;3.00;;
50249;SDS011;36133;42.522;27.456;2022-09-16T08:03:41;7.93;;;3.10;;
50249;SDS011;36133;42.522;27.456;2022-09-16T08:06:09;7.70;;;4.00;;
50249;SDS011;36133;42.522;27.456;2022-09-16T08:08:42;7.88;;;3.83;;
50249;SDS011;36133;42.522;27.456;2022-09-16T08:11:08;12.02;;;3.85;;
50249;SDS011;36133;42.522;27.456;2022-09-16T08:13:36;13.85;;;4.28;;
50249;SDS011;36133;42.522;27.456;2022-09-16T08:16:09;15.90;;;4.75;;
50249;SDS011;36133;42.522;27.456;2022-09-16T08:18:37;10.70;;;3.70;;
50249;SDS011;36133;42.522;27.456;2022-09-16T08:21:06;8.25;;;3.10;;
50249;SDS011;36133;42.522;27.456;2022-09-16T08:23:36;12.15;;;2.95;;
50249;SDS011;36133;42.522;27.456;2022-09-16T08:26:12;7.18;;;3.20;;
50249;SDS011;36133;42.522;27.456;2022-09-16T08:28:40;7.05;;;3.00;;
50249;SDS011;36133;42.522;27.456;2022-09-16T08:31:10;9.95;;;3.05;;
50249;SDS011;36133;42.522;27.456;2022-09-16T08:33:40;6.65;;;2.90;;
50249;SDS011;36133;42.522;27.456;2022-09-16T08:36:19;7.30;;;3.45;;
50249;SDS011;36133;42.522;27.456;2022-09-16T08:38:49;12.38;;;3.25;;
50249;SDS011;36133;42.522;27.456;2022-09-16T08:44:20;13.38;;;3.88;;
50249;SDS011;36133;42.522;27.456;2022-09-16T08:50:02;8.93;;;2.90;;
50249;SDS011;36133;42.522;27.456;2022-09-16T08:52:31;12.13;;;3.22;;
50249;SDS011;36133;42.522;27.456;2022-09-16T08:55:01;5.70;;;3.05;;
50249;SDS011;36133;42.522;27.456;2022-09-16T08:57:33;8.93;;;3.20;;
50249;SDS011;36133;42.522;27.456;2022-09-16T09:00:06;12.27;;;3.30;;
50249;SDS011;36133;42.522;27.456;2022-09-16T09:02:41;6.40;;;3.07;;
50249;SDS011;36133;42.522;27.456;2022-09-16T09:10:40;9.50;;;3.10;;
50249;SDS011;36133;42.522;27.456;2022-09-16T09:24:18;9.45;;;3.42;;
50249;SDS011;36133;42.522;27.456;2022-09-16T09:32:45;12.77;;;3.30;;
50249;SDS011;36133;42.522;27.456;2022-09-16T09:41:07;15.30;;;3.53;;
50249;SDS011;36133;42.522;27.456;2022-09-16T09:43:41;15.15;;;3.63;;
50249;SDS011;36133;42.522;27.456;2022-09-16T09:46:17;16.77;;;3.72;;
50249;SDS011;36133;42.522;27.456;2022-09-16T09:48:50;21.70;;;3.83;;
50249;SDS011;36133;42.522;27.456;2022-09-16T09:51:32;16.10;;;3.55;;
50249;SDS011;36133;42.522;27.456;2022-09-16T09:54:25;15.60;;;3.53;;
50249;SDS011;36133;42.522;27.456;2022-09-16T09:56:59;12.52;;;3.63;;
50249;SDS011;36133;42.522;27.456;2022-09-16T09:59:30;14.18;;;3.78;;
50249;SDS011;36133;42.522;27.456;2022-09-16T10:02:01;17.92;;;3.30;;
50249;SDS011;36133;42.522;27.456;2022-09-16T10:04:34;15.30;;;3.88;;
50249;SDS011;36133;42.522;27.456;2022-09-16T10:07:10;15.88;;;3.40;;
50249;SDS011;36133;42.522;27.456;2022-09-16T10:09:44;20.80;;;3.75;;
50249;SDS011;36133;42.522;27.456;2022-09-16T10:12:35;12.63;;;3.60;;
50249;SDS011;36133;42.522;27.456;2022-09-16T10:15:16;13.93;;;3.40;;
50249;SDS011;36133;42.522;27.456;2022-09-16T10:17:53;15.80;;;4.07;;
50249;SDS011;36133;42.522;27.456;2022-09-16T10:23:00;13.27;;;3.10;;
50249;SDS011;36133;42.522;27.456;2022-09-16T10:25:28;18.10;;;3.75;;
50249;SDS011;36133;42.522;27.456;2022-09-16T10:28:00;19.63;;;4.45;;
50249;SDS011;36133;42.522;27.456;2022-09-16T10:30:52;15.07;;;3.95;;
50249;SDS011;36133;42.522;27.456;2022-09-16T10:36:07;22.63;;;4.20;;
50249;SDS011;36133;42.522;27.456;2022-09-16T10:38:36;17.90;;;4.13;;
50249;SDS011;36133;42.522;27.456;2022-09-16T10:41:18;10.68;;;3.30;;
50249;SDS011;36133;42.522;27.456;2022-09-16T10:43:52;23.58;;;4.70;;
50249;SDS011;36133;42.522;27.456;2022-09-16T10:46:23;18.08;;;3.47;;
50249;SDS011;36133;42.522;27.456;2022-09-16T10:48:52;17.95;;;3.47;;
50249;SDS011;36133;42.522;27.456;2022-09-16T10:54:10;17.75;;;4.22;;
50249;SDS011;36133;42.522;27.456;2022-09-16T10:56:52;15.02;;;3.60;;
50249;SDS011;36133;42.522;27.456;2022-09-16T10:59:18;18.25;;;3.65;;
50249;SDS011;36133;42.522;27.456;2022-09-16T11:13:26;22.75;;;3.97;;
50249;SDS011;36133;42.522;27.456;2022-09-16T11:16:51;20.02;;;4.53;;
50249;SDS011;36133;42.522;27.456;2022-09-16T11:30:20;20.85;;;4.38;;
50249;SDS011;36133;42.522;27.456;2022-09-16T11:33:05;24.20;;;5.45;;
50249;SDS011;36133;42.522;27.456;2022-09-16T11:38:33;32.78;;;4.80;;
50249;SDS011;36133;42.522;27.456;2022-09-16T11:55:37;22.88;;;4.80;;
50249;SDS011;36133;42.522;27.456;2022-09-16T11:58:27;18.85;;;4.57;;
50249;SDS011;36133;42.522;27.456;2022-09-16T12:12:22;14.38;;;4.35;;
50249;SDS011;36133;42.522;27.456;2022-09-16T12:14:54;26.52;;;4.53;;
50249;SDS011;36133;42.522;27.456;2022-09-16T12:17:29;23.75;;;5.45;;
50249;SDS011;36133;42.522;27.456;2022-09-16T12:22:47;28.20;;;5.75;;
50249;SDS011;36133;42.522;27.456;2022-09-16T12:25:37;24.65;;;4.57;;
50249;SDS011;36133;42.522;27.456;2022-09-16T12:28:18;19.10;;;3.90;;
50249;SDS011;36133;42.522;27.456;2022-09-16T12:30:55;17.77;;;4.00;;
50249;SDS011;36133;42.522;27.456;2022-09-16T12:33:48;12.48;;;3.50;;
50249;SDS011;36133;42.522;27.456;2022-09-16T12:36:36;15.55;;;3.75;;
50249;SDS011;36133;42.522;27.456;2022-09-16T12:39:09;17.90;;;3.77;;
50249;SDS011;36133;42.522;27.456;2022-09-16T12:44:20;19.67;;;3.28;;
50249;SDS011;36133;42.522;27.456;2022-09-16T12:55:27;10.38;;;3.00;;
50249;SDS011;36133;42.522;27.456;2022-09-16T13:06:04;13.93;;;3.40;;
50249;SDS011;36133;42.522;27.456;2022-09-16T13:08:41;17.70;;;3.75;;
50249;SDS011;36133;42.522;27.456;2022-09-16T13:11:07;11.80;;;3.42;;
50249;SDS011;36133;42.522;27.456;2022-09-16T13:13:47;12.30;;;3.47;;
50249;SDS011;36133;42.522;27.456;2022-09-16T13:16:25;22.08;;;4.22;;
50249;SDS011;36133;42.522;27.456;2022-09-16T13:24:48;12.82;;;3.55;;
50249;SDS011;36133;42.522;27.456;2022-09-16T13:27:37;23.88;;;3.83;;
50249;SDS011;36133;42.522;27.456;2022-09-16T13:35:04;11.77;;;4.00;;
50249;SDS011;36133;42.522;27.456;2022-09-16T13:37:48;13.52;;;3.17;;
50249;SDS011;36133;42.522;27.456;2022-09-16T13:40:27;12.23;;;3.42;;
50249;SDS011;36133;42.522;27.456;2022-09-16T13:43:57;18.55;;;3.85;;
50249;SDS011;36133;42.522;27.456;2022-09-16T13:46:08;11.50;;;3.20;;
50249;SDS011;36133;42.522;27.456;2022-09-16T13:48:39;14.18;;;3.83;;
50249;SDS011;36133;42.522;27.456;2022-09-16T13:51:52;17.67;;;3.83;;
50249;SDS011;36133;42.522;27.456;2022-09-16T14:21:22;15.05;;;3.72;;
50249;SDS011;36133;42.522;27.456;2022-09-16T14:23:49;14.63;;;3.35;;
50249;SDS011;36133;42.522;27.456;2022-09-16T14:26:22;22.17;;;4.28;;
50249;SDS011;36133;42.522;27.456;2022-09-16T14:28:50;23.30;;;4.50;;
50249;SDS011;36133;42.522;27.456;2022-09-16T14:31:32;15.07;;;3.83;;
50249;SDS011;36133;42.522;27.456;2022-09-16T14:34:28;13.63;;;3.40;;
50249;SDS011;36133;42.522;27.456;2022-09-16T14:36:57;13.90;;;3.15;;
50249;SDS011;36133;42.522;27.456;2022-09-16T14:39:24;15.80;;;4.20;;
50249;SDS011;36133;42.522;27.456;2022-09-16T14:41:53;13.15;;;4.32;;
50249;SDS011;36133;42.522;27.456;2022-09-16T14:47:01;19.90;;;4.75;;
50249;SDS011;36133;42.522;27.456;2022-09-16T14:49:35;15.55;;;3.55;;
50249;SDS011;36133;42.522;27.456;2022-09-16T14:52:14;15.90;;;3.85;;
50249;SDS011;36133;42.522;27.456;2022-09-16T14:54:55;13.95;;;4.18;;
50249;SDS011;36133;42.522;27.456;2022-09-16T14:57:22;23.48;;;7.20;;
50249;SDS011;36133;42.522;27.456;2022-09-16T14:59:51;19.05;;;5.25;;
50249;SDS011;36133;42.522;27.456;2022-09-16T15:05:19;17.60;;;3.85;;
50249;SDS011;36133;42.522;27.456;2022-09-16T15:07:46;20.17;;;4.10;;
50249;SDS011;36133;42.522;27.456;2022-09-16T15:10:23;23.17;;;5.18;;
50249;SDS011;36133;42.522;27.456;2022-09-16T15:12:55;20.77;;;4.13;;
50249;SDS011;36133;42.522;27.456;2022-09-16T15:15:25;20.58;;;6.25;;
50249;SDS011;36133;42.522;27.456;2022-09-16T15:17:58;25.77;;;5.07;;
50249;SDS011;36133;42.522;27.456;2022-09-16T15:24:03;13.55;;;4.47;;
50249;SDS011;36133;42.522;27.456;2022-09-16T15:26:42;13.07;;;5.18;;
50249;SDS011;36133;42.522;27.456;2022-09-16T15:32:19;15.85;;;5.45;;
50249;SDS011;36133;42.522;27.456;2022-09-16T15:34:47;14.10;;;5.80;;
50249;SDS011;36133;42.522;27.456;2022-09-16T15:37:29;16.95;;;5.07;;
50249;SDS011;36133;42.522;27.456;2022-09-16T15:43:04;14.63;;;4.90;;
50249;SDS011;36133;42.522;27.456;2022-09-16T15:45:37;13.13;;;4.18;;
50249;SDS011;36133;42.522;27.456;2022-09-16T15:48:16;23.85;;;4.63;;
50249;SDS011;36133;42.522;27.456;2022-09-16T15:50:45;16.55;;;4.05;;
50249;SDS011;36133;42.522;27.456;2022-09-16T15:53:48;14.68;;;4.13;;
50249;SDS011;36133;42.522;27.456;2022-09-16T15:56:21;11.43;;;3.85;;
50249;SDS011;36133;42.522;27.456;2022-09-16T15:59:17;17.27;;;3.95;;
50249;SDS011;36133;42.522;27.456;2022-09-16T16:01:53;20.00;;;3.90;;
50249;SDS011;36133;42.522;27.456;2022-09-16T16:04:24;16.52;;;3.28;;
50249;SDS011;36133;42.522;27.456;2022-09-16T16:06:58;14.18;;;3.92;;
50249;SDS011;36133;42.522;27.456;2022-09-16T16:09:35;14.93;;;3.97;;
50249;SDS011;36133;42.522;27.456;2022-09-16T16:12:07;20.70;;;4.88;;
50249;SDS011;36133;42.522;27.456;2022-09-16T16:14:35;18.10;;;3.50;;
50249;SDS011;36133;42.522;27.456;2022-09-16T16:19:32;28.73;;;5.13;;
50249;SDS011;36133;42.522;27.456;2022-09-16T16:22:09;20.77;;;3.97;;
50249;SDS011;36133;42.522;27.456;2022-09-16T16:24:35;18.45;;;3.30;;
50249;SDS011;36133;42.522;27.456;2022-09-16T16:27:02;14.32;;;3.53;;
50249;SDS011;36133;42.522;27.456;2022-09-16T16:29:28;30.42;;;3.90;;
50249;SDS011;36133;42.522;27.456;2022-09-16T16:32:01;17.05;;;3.78;;
50249;SDS011;36133;42.522;27.456;2022-09-16T16:34:38;20.65;;;3.72;;
50249;SDS011;36133;42.522;27.456;2022-09-16T16:37:08;21.05;;;3.90;;
50249;SDS011;36133;42.522;27.456;2022-09-16T16:39:45;18.50;;;3.97;;
50249;SDS011;36133;42.522;27.456;2022-09-16T16:42:11;24.20;;;3.60;;
50249;SDS011;36133;42.522;27.456;2022-09-16T16:44:37;16.20;;;3.42;;
50249;SDS011;36133;42.522;27.456;2022-09-16T16:47:04;20.77;;;3.65;;
50249;SDS011;36133;42.522;27.456;2022-09-16T16:49:31;23.75;;;3.92;;
50249;SDS011;36133;42.522;27.456;2022-09-16T16:51:58;24.45;;;4.30;;
50249;SDS011;36133;42.522;27.456;2022-09-16T16:54:24;19.90;;;3.90;;
50249;SDS011;36133;42.522;27.456;2022-09-16T16:56:51;21.73;;;5.18;;
50249;SDS011;36133;42.522;27.456;2022-09-16T16:59:17;23.30;;;3.83;;
50249;SDS011;36133;42.522;27.456;2022-09-16T17:01:44;13.60;;;3.65;;
50249;SDS011;36133;42.522;27.456;2022-09-16T17:04:11;18.27;;;3.63;;
50249;SDS011;36133;42.522;27.456;2022-09-16T17:06:37;20.63;;;4.10;;
50249;SDS011;36133;42.522;27.456;2022-09-16T17:09:04;19.63;;;3.63;;
50249;SDS011;36133;42.522;27.456;2022-09-16T17:11:31;19.50;;;3.10;;
50249;SDS011;36133;42.522;27.456;2022-09-16T17:13:58;24.20;;;3.55;;
50249;SDS011;36133;42.522;27.456;2022-09-16T17:16:25;16.67;;;4.05;;
50249;SDS011;36133;42.522;27.456;2022-09-16T17:18:52;16.15;;;3.42;;
50249;SDS011;36133;42.522;27.456;2022-09-16T17:23:45;22.10;;;3.92;;
50249;SDS011;36133;42.522;27.456;2022-09-16T17:26:11;13.98;;;3.90;;
50249;SDS011;36133;42.522;27.456;2022-09-16T17:28:38;20.15;;;4.13;;
50249;SDS011;36133;42.522;27.456;2022-09-16T17:31:16;17.15;;;3.28;;
50249;SDS011;36133;42.522;27.456;2022-09-16T17:33:52;16.98;;;4.00;;
50249;SDS011;36133;42.522;27.456;2022-09-16T17:36:20;20.23;;;4.07;;
50249;SDS011;36133;42.522;27.456;2022-09-16T17:38:48;17.98;;;4.75;;
50249;SDS011;36133;42.522;27.456;2022-09-16T17:41:24;19.30;;;4.60;;
50249;SDS011;36133;42.522;27.456;2022-09-16T17:43:53;23.13;;;4.97;;
50249;SDS011;36133;42.522;27.456;2022-09-16T17:46:20;19.42;;;4.13;;
50249;SDS011;36133;42.522;27.456;2022-09-16T17:48:47;20.17;;;4.07;;
50249;SDS011;36133;42.522;27.456;2022-09-16T17:51:14;18.70;;;3.85;;
50249;SDS011;36133;42.522;27.456;2022-09-16T17:53:40;23.83;;;3.60;;
50249;SDS011;36133;42.522;27.456;2022-09-16T17:56:11;19.17;;;4.18;;
50249;SDS011;36133;42.522;27.456;2022-09-16T17:58:40;16.35;;;3.83;;
50249;SDS011;36133;42.522;27.456;2022-09-16T18:01:09;18.05;;;4.03;;
50249;SDS011;36133;42.522;27.456;2022-09-16T18:03:37;14.85;;;4.07;;
50249;SDS011;36133;42.522;27.456;2022-09-16T18:06:05;21.17;;;5.15;;
50249;SDS011;36133;42.522;27.456;2022-09-16T18:08:35;15.00;;;4.22;;
50249;SDS011;36133;42.522;27.456;2022-09-16T18:11:03;19.80;;;4.97;;
50249;SDS011;36133;42.522;27.456;2022-09-16T18:13:29;18.17;;;4.63;;
50249;SDS011;36133;42.522;27.456;2022-09-16T18:15:55;27.65;;;4.82;;
50249;SDS011;36133;42.522;27.456;2022-09-16T18:18:25;21.83;;;5.43;;
50249;SDS011;36133;42.522;27.456;2022-09-16T18:20:51;20.23;;;5.15;;
50249;SDS011;36133;42.522;27.456;2022-09-16T18:23:18;26.83;;;4.20;;
50249;SDS011;36133;42.522;27.456;2022-09-16T18:25:43;16.70;;;5.18;;
50249;SDS011;36133;42.522;27.456;2022-09-16T18:28:09;15.73;;;3.85;;
50249;SDS011;36133;42.522;27.456;2022-09-16T18:30:34;15.90;;;4.43;;
50249;SDS011;36133;42.522;27.456;2022-09-16T18:33:00;18.85;;;4.45;;